Latest Coastal Weather Observations for Legendre Island

IDW60701

Issued at 6:53 am WST Tuesday 28 February 2017 (issued every 10 minutes, with the page automatically refreshed every 10 minutes)

About coastal observations | Map of coastal stations | Coastal observations for WA | Marine services | Other Formats
Station Details ID: 004095 Name: LEGENDRE ISLAND Lat: -20.36 Lon: 116.84 Height: 29.0 m
Data from the previous 72 hours. | See also: Recent months at Legendre Island
Date/Time
WST
Temp
°C
Wind Pressure Rain since
9am
mm
Weather Cloud Vis
km
Sea
Height
m
Swell
Dir  Spd
kts
Gust
kts
hPa Trend Height
m
Period
s
Dir
28/06:30am 28.8 ENE 15 17 1009.9 - - - - - - - - -
28/06:00am 28.6 ENE 14 17 1009.7 - - - - - - - - -
28/05:30am 28.6 ENE 13 15 1009.5 - - - - - - - - -
28/05:00am 28.6 ENE 11 14 1009.3 - - - - - - - - -
28/04:30am 28.6 ENE 10 11 1009.3 - - - - - - - - -
28/04:00am 28.7 ENE 11 13 1009.1 - - - - - - - - -
28/03:30am 28.5 ENE 10 11 1009.4 - - - - - - - - -
28/03:00am 28.7 ENE 11 12 1009.4 - - - - - - - - -
28/02:30am 28.7 ENE 12 14 1009.3 - - - - - - - - -
28/02:00am 28.9 ENE 11 13 1009.5 - - - - - - - - -
28/01:30am 28.9 NE 11 13 1009.6 - - - - - - - - -
28/01:00am 28.8 NE 10 11 1010.0 - - - - - - - - -
28/12:30am 28.9 NE 11 13 1010.2 - - - - - - - - -
28/12:00am 29.1 NE 11 13 1010.4 - - - - - - - - -
 
Date/Time
WST
Temp
°C
Wind Pressure Rain since
9am
mm
Weather Cloud Vis
km
Sea
Height
m
Swell
Dir  Spd
kts
Gust
kts
hPa Trend Height
m
Period
s
Dir
27/11:30pm 29.1 ENE 10 12 1010.7 - - - - - - - - -
27/11:00pm 29.2 ENE 10 12 1010.8 - - - - - - - - -
27/10:30pm 29.3 ENE 12 13 1010.9 - - - - - - - - -
27/10:00pm 29.3 ENE 12 15 1011.0 - - - - - - - - -
27/09:30pm 29.3 NE 15 16 1010.7 - - - - - - - - -
27/09:00pm 29.4 ENE 13 15 1010.5 - - - - - - - - -
27/08:30pm 29.4 ENE 12 14 1010.2 - - - - - - - - -
27/08:00pm 29.4 ENE 13 15 1009.8 - - - - - - - - -
27/07:30pm 29.6 NE 13 15 1009.4 - - - - - - - - -
27/07:00pm 29.5 NE 14 16 1008.7 - - - - - - - - -
27/06:30pm 29.4 NE 16 17 1008.1 - - - - - - - - -
27/06:00pm 29.7 NE 16 18 1007.7 - - - - - - - - -
27/05:30pm 30.1 NE 16 18 1007.7 - - - - - - - - -
27/05:00pm 30.4 NE 15 17 1007.8 - - - - - - - - -
27/04:30pm 30.9 NE 13 15 1008.0 - - - - - - - - -
27/04:00pm 31.1 NE 14 17 1008.1 - - - - - - - - -
27/03:30pm 31.4 NE 14 16 1008.3 - - - - - - - - -
27/03:00pm 31.8 ENE 13 14 1008.3 - - - - - - - - -
27/02:30pm 31.8 ENE 13 15 1008.6 - - - - - - - - -
27/02:00pm 32.2 ENE 12 14 1008.7 - - - - - - - - -
27/01:30pm 32.0 ENE 14 16 1009.0 - - - - - - - - -
27/01:00pm 31.5 ENE 14 17 1009.5 - - - - - - - - -
27/12:30pm 31.2 E 14 17 1009.5 - - - - - - - - -
27/12:00pm 31.2 E 16 19 1009.8 - - - - - - - - -
27/11:30am 31.2 E 17 19 1010.2 - - - - - - - - -
27/11:00am 31.1 E 17 20 1010.5 - - - - - - - - -
27/10:30am 30.8 E 19 21 1010.8 - - - - - - - - -
27/10:00am 30.4 E 20 23 1010.9 - - - - - - - - -
27/09:30am 30.3 E 19 21 1010.8 - - - - - - - - -
27/09:00am 29.9 E 18 21 1010.7 - - - - - - - - -
27/08:30am 29.8 E 18 21 1010.6 - - - - - - - - -
27/08:00am 29.4 E 20 23 1010.2 - - - - - - - - -
27/07:30am 29.0 ESE 18 20 1009.9 - - - - - - - - -
27/07:00am 28.5 E 18 22 1009.9 - - - - - - - - -
27/06:30am 28.2 E 18 20 1009.5 - - - - - - - - -
27/06:00am 28.1 E 18 21 1009.2 - - - - - - - - -
27/05:30am 27.9 ESE 16 19 1009.0 - - - - - - - - -
27/05:00am 27.8 ESE 16 19 1008.9 - - - - - - - - -
27/04:30am 27.9 E 16 20 1008.8 - - - - - - - - -
27/04:00am 27.8 E 18 21 1008.9 - - - - - - - - -
27/03:30am 27.9 E 18 21 1008.7 - - - - - - - - -
27/03:00am 27.8 E 17 20 1008.6 - - - - - - - - -
27/02:30am 28.1 ESE 15 18 1008.8 - - - - - - - - -
27/02:00am 28.0 ESE 13 16 1009.1 - - - - - - - - -
27/01:30am 28.3 E 15 17 1009.2 - - - - - - - - -
27/01:00am 28.4 ESE 15 19 1009.4 - - - - - - - - -
27/12:30am 28.7 E 18 21 1009.5 - - - - - - - - -
27/12:00am 28.7 ESE 15 18 1010.1 - - - - - - - - -
 
Date/Time
WST
Temp
°C
Wind Pressure Rain since
9am
mm
Weather Cloud Vis
km
Sea
Height
m
Swell
Dir  Spd
kts
Gust
kts
hPa Trend Height
m
Period
s
Dir
26/11:30pm 28.9 ESE 13 14 1010.2 - - - - - - - - -
26/11:00pm 28.8 ENE 11 13 1009.9 - - - - - - - - -
26/10:30pm 29.0 NE 11 13 1009.6 - - - - - - - - -
26/10:00pm 28.9 NE 15 18 1009.4 - - - - - - - - -
26/09:30pm 29.7 NE 15 17 1009.2 - - - - - - - - -
26/09:00pm 29.6 ENE 14 16 1009.3 - - - - - - - - -
26/08:30pm 29.7 E 16 21 1008.9 - - - - - - - - -
26/08:00pm 29.7 NNE 11 13 1008.7 - - - - - - - - -
26/07:30pm 29.7 N 14 17 1007.3 - - - - - - - - -
26/07:00pm 29.8 N 15 17 1006.7 - - - - - - - - -
26/06:30pm 30.0 N 15 17 1006.1 - - - - - - - - -
26/06:00pm 30.3 NNE 16 18 1005.6 - - - - - - - - -
26/05:30pm 30.6 NNE 14 17 1005.8 - - - - - - - - -
26/05:00pm 30.9 NNE 15 17 1006.0 - - - - - - - - -
26/04:30pm 31.4 NNE 15 17 1005.9 - - - - - - - - -
26/04:00pm 31.9 NNE 15 17 1006.0 - - - - - - - - -
26/03:30pm 32.3 NE 15 17 1006.2 - - - - - - - - -
26/03:00pm 32.3 NE 17 20 1006.4 - - - - - - - - -
26/02:30pm 32.6 NE 16 18 1006.8 - - - - - - - - -
26/02:00pm 32.8 ENE 16 18 1007.0 - - - - - - - - -
26/01:30pm 32.9 ENE 16 18 1007.3 - - - - - - - - -
26/01:00pm 33.8 ENE 13 15 1007.6 - - - - - - - - -
26/12:30pm 33.7 E 12 15 1007.9 - - - - - - - - -
26/12:00pm 33.5 E 13 14 1008.0 - - - - - - - - -
26/11:30am 33.4 E 15 17 1008.2 - - - - - - - - -
26/11:00am 33.5 E 15 17 1008.2 - - - - - - - - -
26/10:30am 33.7 E 17 20 1008.3 - - - - - - - - -
26/10:00am 34.3 ESE 15 17 1008.4 - - - - - - - - -
26/09:30am 34.3 ESE 16 19 1008.4 - - - - - - - - -
26/09:00am 34.7 ESE 15 18 1008.2 - - - - - - - - -
26/08:30am 34.5 SE 10 15 1008.1 - - - - - - - - -
26/08:00am 33.5 SSE 7 11 1007.9 - - - - - - - - -
26/07:30am 32.2 SSE 9 12 1007.7 - - - - - - - - -
26/07:00am 30.2 S 7 9 1007.6 - - - - - - - - -
26/06:30am 29.6 S 8 9 1007.5 - - - - - - - - -
26/06:00am 29.1 SSE 11 12 1007.3 - - - - - - - - -
26/05:30am 28.9 SSE 9 11 1007.2 - - - - - - - - -
26/05:00am 28.7 SSE 5 7 1007.2 - - - - - - - - -
26/04:30am 29.1 SSE 10 11 1007.2 - - - - - - - - -
26/04:00am 29.2 SSE 10 11 1007.0 - - - - - - - - -
26/03:30am 29.0 SSE 9 11 1007.2 - - - - - - - - -
26/03:00am 28.7 SSE 9 9 1007.2 - - - - - - - - -
26/02:30am 29.3 SSE 8 9 1007.5 - - - - - - - - -
26/02:00am 29.7 SSE 10 10 1007.7 - - - - - - - - -
26/01:30am 29.6 SSE 10 11 1008.1 - - - - - - - - -
26/01:00am 29.4 SSE 9 10 1008.3 - - - - - - - - -
26/12:30am 29.4 S 9 10 1008.5 - - - - - - - - -
26/12:00am 29.1 SSW 7 7 1008.7 - - - - - - - - -
 
Date/Time
WST
Temp
°C
Wind Pressure Rain since
9am
mm
Weather Cloud Vis
km
Sea
Height
m
Swell
Dir  Spd
kts
Gust
kts
hPa Trend Height
m
Period
s
Dir
25/11:30pm 29.0 SSW 5 6 1009.1 - - - - - - - - -
25/11:00pm 29.5 SSW 7 9 1009.1 - - - - - - - - -
25/10:30pm 29.7 SW 9 10 1009.4 - - - - - - - - -
25/10:00pm 29.9 SSW 12 15 1009.4 - - - - - - - - -
25/09:30pm 29.2 SW 8 11 1009.3 - - - - - - - - -
25/09:00pm 29.4 WNW 6 7 1009.0 - - - - - - - - -
25/08:30pm 29.6 W 7 9 1008.7 - - - - - - - - -
25/08:00pm 30.2 NNW 7 8 1008.5 - - - - - - - - -
25/07:30pm 30.3 NNW 7 8 1008.3 - - - - - - - - -
25/07:00pm 30.8 N 7 8 1007.8 - - - - - - - - -
25/06:30pm 31.1 N 7 8 1007.5 - - - - - - - - -
25/06:00pm 31.7 N 8 9 1007.4 - - - - - - - - -
25/05:30pm 32.0 NNE 8 10 1007.1 - - - - - - - - -
25/05:00pm 32.5 NNE 8 9 1007.3 - - - - - - - - -
25/04:30pm 33.6 NNE 9 9 1007.4 - - - - - - - - -
25/04:00pm 34.0 NE 9 10 1007.5 - - - - - - - - -
25/03:30pm 33.6 NE 8 9 1007.8 - - - - - - - - -
25/03:00pm 33.7 ENE 8 9 1008.0 - - - - - - - - -
25/02:30pm 34.0 NE 8 9 1008.3 - - - - - - - - -
25/02:00pm 34.0 ENE 9 10 1008.6 - - - - - - - - -
25/01:30pm 34.7 ENE 9 10 1008.8 - - - - - - - - -
25/01:00pm 34.7 ENE 10 11 1009.2 - - - - - - - - -
25/12:30pm 34.5 ENE 10 11 1009.4 - - - - - - - - -
25/12:00pm 34.0 E 9 10 1009.6 - - - - - - - - -
25/11:30am 34.0 E 11 12 1009.8 - - - - - - - - -
25/11:00am 34.0 E 10 11 1009.8 - - - - - - - - -
25/10:30am 34.0 E 12 15 1010.0 - - - - - - - - -
25/10:00am 35.0 ESE 14 17 1010.2 - - - - - - - - -
25/09:30am 35.1 E 7 9 1010.1 - - - - - - - - -
25/09:00am 34.9 ESE 5 8 1010.2 - - - - - - - - -
25/08:30am 34.0 S 5 9 1010.0 - - - - - - - - -
25/08:00am 33.1 S 4 6 1009.9 - - - - - - - - -
25/07:30am 32.5 S 3 5 1009.7 - - - - - - - - -
25/07:00am 31.0 SSW 4 4 1009.5 - - - - - - - - -

Other Formats:

Comma delimited format used in spreadsheet applications
http://www.bom.gov.au/fwo/IDW60701/IDW60701.94307.axf

JavaScript Object Notation format (JSON) in row-major order
http://www.bom.gov.au/fwo/IDW60701/IDW60701.94307.json